Belcoville, New Jersey
Current Conditions -  °F | °C
As of 10:54 AM on Wednesday 28 Jan 2015 (Local Time) from KACY Reporting Station
Clear Clear  
Wind Chill: 12°   Ceiling: Unl
Heat Index: 26°   Visibility: 10mi
Dew Point:   Wind: 22mph
Humidity: 43%   Direction: 310°NW
Pressure: 30.1"   Gusts: NA
Location:  39.4502°N, 74.7366°W
Report Text: KACY 281554Z 31019KT 10SM CLR M03/M14 A3010 RMK AO2 PK WND 32027/1517 SLP194 T10331144
Loading
Personal Weather Stations






























Interactive Weather Map New forecast layout! Learn more

10-Day Weather Forecast

Advertisements
Track Severe Weather on mobile